Terminal Aerodrome Forecast
Issued by NWS

Home | Current Version | Previous Version | Text Only | Print | Product List | Glossary On
Versions: 1 2 3 4 5 6 7 8 9 10 11 12
000
FTUS44 KSJT 292300 RRA
TAFJCT
TAF
KJCT 292342Z 3000/3024 04012G19KT P6SM BKN100
     FM301200 06010KT P6SM BKN100
     FM301700 09008KT P6SM BKN030=

USA.gov is the U.S. government's official web portal to all federal, state and local government web resources and services.